Time;durP1;ratioP1;P1;durP2;ratioP2;P2;SDS_P1;SDS_P2;PMS_P1;PMS_P2;Temp;Humidity;BMP_temperature;BMP_pressure;BME280_temperature;BME280_humidity;BME280_pressure;Samples;Min_cycle;Max_cycle;Signal;HPM_P1;HPM_P2
2023/08/21 00:00:56;;;;;;;4.90;2.83;;;;;;;19.17;100.00;102106.03;4994594;28;20029;-67
2023/08/21 00:03:22;;;;;;;4.75;2.95;;;;;;;19.14;100.00;102103.34;4994634;28;20105;-66
2023/08/21 00:05:47;;;;;;;8.18;3.20;;;;;;;19.12;100.00;102104.19;4993821;28;20036;-68
2023/08/21 00:08:12;;;;;;;4.18;2.80;;;;;;;19.08;100.00;102108.47;4994408;28;20059;-67
2023/08/21 00:10:37;;;;;;;4.22;2.55;;;;;;;19.06;100.00;102118.06;4993461;28;20454;-67
2023/08/21 00:13:03;;;;;;;5.28;2.97;;;;;;;19.06;100.00;102112.81;4992125;28;20051;-67
2023/08/21 00:15:28;;;;;;;5.97;3.15;;;;;;;19.05;100.00;102117.16;4993579;28;20034;-67
2023/08/21 00:17:54;;;;;;;5.90;2.75;;;;;;;19.06;100.00;102115.44;4994225;28;20022;-65
2023/08/21 00:20:19;;;;;;;5.22;2.85;;;;;;;19.08;100.00;102125.13;4994252;28;20338;-64
2023/08/21 00:22:44;;;;;;;7.18;3.00;;;;;;;19.13;100.00;102133.09;4992158;28;20033;-66
2023/08/21 00:25:09;;;;;;;6.80;2.50;;;;;;;19.18;100.00;102125.28;4990761;28;20030;-66
2023/08/21 00:27:35;;;;;;;8.27;3.58;;;;;;;19.18;100.00;102106.91;4990754;28;20583;-65
2023/08/21 00:30:00;;;;;;;7.10;2.60;;;;;;;19.16;100.00;102099.00;4991136;28;20026;-66
2023/08/21 00:32:26;;;;;;;6.43;3.28;;;;;;;19.12;100.00;102097.19;4991258;28;20034;-67
2023/08/21 00:34:51;;;;;;;5.57;2.92;;;;;;;19.07;100.00;102104.06;4990953;28;20160;-66
2023/08/21 00:37:16;;;;;;;5.30;2.65;;;;;;;19.01;100.00;102097.00;4990422;28;20041;-67
2023/08/21 00:39:42;;;;;;;6.40;2.88;;;;;;;18.95;100.00;102091.63;4990249;28;20492;-66
2023/08/21 00:42:07;;;;;;;7.65;3.30;;;;;;;18.88;100.00;102097.63;4990653;28;20054;-66
2023/08/21 00:44:32;;;;;;;7.70;3.70;;;;;;;18.80;100.00;102097.47;4991138;28;20023;-67
2023/08/21 00:46:58;;;;;;;5.28;2.92;;;;;;;18.75;100.00;102101.75;4990904;28;20125;-66
2023/08/21 00:49:23;;;;;;;5.88;3.40;;;;;;;18.69;100.00;102103.44;4990669;28;20541;-67
2023/08/21 00:51:50;;;;;;;7.03;3.25;;;;;;;18.66;100.00;102092.88;4989970;28;20376;-67
2023/08/21 00:54:15;;;;;;;6.90;3.55;;;;;;;18.62;100.00;102096.28;4990279;28;20033;-67
2023/08/21 00:56:41;;;;;;;6.70;3.28;;;;;;;18.59;100.00;102097.13;4990196;28;20474;-66
2023/08/21 00:59:07;;;;;;;6.10;2.85;;;;;;;18.57;100.00;102108.44;4990182;28;20030;-66
2023/08/21 01:01:33;;;;;;;4.57;3.15;;;;;;;18.60;100.00;102098.03;4989872;28;20042;-66
2023/08/21 01:03:58;;;;;;;7.82;2.88;;;;;;;18.60;100.00;102100.66;4990542;28;20089;-66
2023/08/21 01:06:24;;;;;;;4.97;2.80;;;;;;;18.61;100.00;102099.78;4990784;28;20105;-67
2023/08/21 01:09:00;;;;;;;8.68;3.10;;;;;;;18.64;100.00;102099.84;4989980;28;20022;-66
2023/08/21 01:11:39;;;;;;;7.22;3.45;;;;;;;18.65;100.00;102101.63;4989931;28;20026;-64
2023/08/21 01:14:33;;;;;;;7.03;3.20;;;;;;;18.59;100.00;102105.00;4989879;28;20129;-66
2023/08/21 01:17:02;;;;;;;6.30;3.30;;;;;;;18.58;100.00;102116.34;4987586;28;20358;-65
2023/08/21 01:19:35;;;;;;;5.03;3.00;;;;;;;18.63;100.00;102119.06;4989907;28;20072;-67
2023/08/21 01:22:00;;;;;;;5.97;3.40;;;;;;;18.65;100.00;102109.50;4989834;28;20052;-67
2023/08/21 01:24:26;;;;;;;7.63;3.30;;;;;;;18.62;100.00;102096.28;4989517;28;20026;-64
2023/08/21 01:26:51;;;;;;;8.82;3.15;;;;;;;18.62;100.00;102083.16;4989803;28;20218;-65
2023/08/21 01:29:16;;;;;;;6.85;2.90;;;;;;;18.56;100.00;102086.59;4990027;28;20449;-66
2023/08/21 01:31:48;;;;;;;6.72;3.60;;;;;;;18.53;100.00;102090.91;4989350;28;20425;-66
2023/08/21 01:34:14;;;;;;;6.85;3.58;;;;;;;18.45;100.00;102081.13;4989186;28;20030;-66
2023/08/21 01:36:40;;;;;;;7.57;3.45;;;;;;;18.41;100.00;102081.03;4988589;28;20026;-64
2023/08/21 01:39:06;;;;;;;5.55;2.90;;;;;;;18.33;100.00;102078.28;4989448;28;20401;-67
2023/08/21 01:41:31;;;;;;;5.93;3.35;;;;;;;18.28;100.00;102078.19;4989390;28;20026;-67
2023/08/21 01:43:57;;;;;;;5.35;3.33;;;;;;;18.24;100.00;102074.59;4989626;28;20110;-67
2023/08/21 01:46:22;;;;;;;5.15;2.95;;;;;;;18.21;100.00;102079.81;4988882;28;20022;-64
2023/08/21 01:48:47;;;;;;;5.40;3.65;;;;;;;18.18;100.00;102081.47;4989316;28;20494;-65
2023/08/21 01:51:13;;;;;;;5.07;3.63;;;;;;;18.13;100.00;102081.38;4988877;28;20054;-67
2023/08/21 01:53:38;;;;;;;8.27;3.55;;;;;;;18.08;100.00;102077.78;4988991;28;20449;-63
2023/08/21 01:56:03;;;;;;;5.47;3.13;;;;;;;18.06;100.00;102071.59;4989106;28;20029;-67
2023/08/21 01:58:28;;;;;;;5.00;3.03;;;;;;;18.03;100.00;102077.66;4988927;28;20037;-66
2023/08/21 02:00:54;;;;;;;7.05;3.53;;;;;;;18.03;100.00;102087.25;4988280;28;20033;-67
2023/08/21 02:03:19;;;;;;;4.25;3.25;;;;;;;18.04;100.00;102089.94;4989050;28;20061;-65
2023/08/21 02:05:44;;;;;;;5.00;3.17;;;;;;;18.04;100.00;102089.94;4988861;28;20026;-67
2023/08/21 02:08:12;;;;;;;7.07;3.55;;;;;;;18.04;100.00;102087.31;4971101;28;20031;-67
2023/08/21 02:10:46;;;;;;;7.63;3.75;;;;;;;18.05;100.00;102098.66;4988973;28;20334;-67
2023/08/21 02:13:11;;;;;;;7.90;4.13;;;;;;;18.02;100.00;102106.47;4988643;28;20068;-66
2023/08/21 02:15:36;;;;;;;5.20;3.42;;;;;;;17.96;100.00;102105.50;4988951;28;20033;-66
2023/08/21 02:18:01;;;;;;;7.28;3.95;;;;;;;17.92;100.00;102101.03;4988636;28;20026;-66
2023/08/21 02:20:27;;;;;;;6.85;4.25;;;;;;;17.84;100.00;102093.03;4988766;28;20105;-64
2023/08/21 02:22:52;;;;;;;7.40;3.67;;;;;;;17.79;100.00;102099.00;4988566;28;20033;-67
2023/08/21 02:25:18;;;;;;;6.93;4.20;;;;;;;17.74;100.00;102099.78;4988872;28;20022;-65
2023/08/21 02:27:43;;;;;;;6.15;3.80;;;;;;;17.69;100.00;102101.41;4988585;28;20041;-66
2023/08/21 02:30:09;;;;;;;5.60;4.05;;;;;;;17.71;100.00;102093.59;4988810;28;20022;-66
2023/08/21 02:32:34;;;;;;;5.07;3.95;;;;;;;17.69;100.00;102101.41;4988694;28;20041;-64
2023/08/21 02:34:59;;;;;;;4.65;4.15;;;;;;;17.66;100.00;102090.88;4988802;28;20030;-65
2023/08/21 02:37:25;;;;;;;8.93;4.40;;;;;;;17.63;100.00;102090.78;4988301;28;20058;-66
2023/08/21 02:39:50;;;;;;;8.32;4.05;;;;;;;17.61;100.00;102088.13;4988256;28;20053;-66
2023/08/21 02:42:15;;;;;;;6.03;3.90;;;;;;;17.59;100.00;102086.34;4988722;28;20058;-66
2023/08/21 02:44:41;;;;;;;7.53;4.38;;;;;;;17.55;100.00;102092.34;4988101;28;20024;-64
2023/08/21 02:47:06;;;;;;;6.35;4.35;;;;;;;17.52;100.00;102088.81;4987740;28;20022;-66
2023/08/21 02:49:32;;;;;;;9.27;4.40;;;;;;;17.51;100.00;102087.06;4988004;28;20030;-67
2023/08/21 02:51:57;;;;;;;5.85;4.40;;;;;;;17.46;100.00;102083.44;4988593;28;20022;-66
2023/08/21 02:54:22;;;;;;;7.10;4.65;;;;;;;17.43;100.00;102093.81;4988223;28;20022;-66
2023/08/21 02:56:48;;;;;;;6.88;3.83;;;;;;;17.38;100.00;102085.88;4988061;28;20048;-66
2023/08/21 02:59:13;;;;;;;7.82;5.50;;;;;;;17.34;100.00;102093.63;4988177;28;20029;-67
2023/08/21 03:01:38;;;;;;;7.43;4.97;;;;;;;17.29;100.00;102088.28;4987971;28;20065;-66
2023/08/21 03:04:03;;;;;;;6.50;4.20;;;;;;;17.24;100.00;102088.16;4988413;28;20490;-66
2023/08/21 03:06:29;;;;;;;6.03;4.30;;;;;;;17.20;100.00;102088.94;4988611;28;20073;-66
2023/08/21 03:08:54;;;;;;;6.78;4.30;;;;;;;17.18;100.00;102082.78;4988924;28;20027;-67
2023/08/21 03:11:19;;;;;;;7.10;5.05;;;;;;;17.17;100.00;102088.88;4987819;28;20033;-65
2023/08/21 03:13:45;;;;;;;5.78;4.65;;;;;;;17.13;100.00;102089.63;4988160;28;20098;-66
2023/08/21 03:16:10;;;;;;;6.50;4.50;;;;;;;17.11;100.00;102080.84;4988446;28;20707;-66
2023/08/21 03:18:57;;;;;;;8.32;4.90;;;;;;;17.02;100.00;102082.38;4987610;28;20022;-66
2023/08/21 03:21:23;;;;;;;7.20;4.43;;;;;;;16.99;100.00;102092.78;4987676;28;20030;-64
2023/08/21 03:23:56;;;;;;;8.27;5.18;;;;;;;16.97;100.00;102088.34;4988215;28;20382;-66
2023/08/21 03:26:23;;;;;;;6.20;4.72;;;;;;;16.95;100.00;102088.28;4987909;28;20496;-64
2023/08/21 03:28:48;;;;;;;6.50;5.78;;;;;;;16.93;100.00;102088.25;4988023;28;20025;-67
2023/08/21 03:31:14;;;;;;;8.05;4.78;;;;;;;16.93;100.00;102096.13;4988171;28;20022;-67
2023/08/21 03:33:39;;;;;;;6.65;4.15;;;;;;;16.96;100.00;102092.69;4987746;28;20026;-64
2023/08/21 03:36:05;;;;;;;7.97;4.45;;;;;;;16.98;100.00;102096.22;4988030;28;20497;-66
2023/08/21 03:38:30;;;;;;;7.60;4.80;;;;;;;17.00;100.00;102099.78;4988160;28;20063;-66
2023/08/21 03:40:55;;;;;;;6.63;3.90;;;;;;;17.03;100.00;102097.25;4987984;28;20031;-66
2023/08/21 03:43:21;;;;;;;9.07;4.70;;;;;;;17.05;100.00;102102.53;4987063;28;20482;-66
2023/08/21 03:45:46;;;;;;;6.22;4.38;;;;;;;17.05;100.00;102092.91;4987420;28;20022;-67
2023/08/21 03:48:13;;;;;;;7.68;4.20;;;;;;;17.01;100.00;102095.44;4987836;28;20030;-66
2023/08/21 03:50:38;;;;;;;6.25;4.25;;;;;;;16.98;100.00;102096.22;4987721;28;20493;-67
2023/08/21 03:53:03;;;;;;;5.93;4.43;;;;;;;16.92;100.00;102091.75;4987848;28;20022;-67
2023/08/21 03:55:29;;;;;;;10.05;4.07;;;;;;;16.86;100.00;102085.44;4987326;28;20105;-66
2023/08/21 03:57:54;;;;;;;9.43;4.80;;;;;;;16.79;100.00;102090.53;4988332;28;20050;-66
2023/08/21 04:00:19;;;;;;;5.47;4.40;;;;;;;16.75;100.00;102091.28;4991397;28;20037;-66
2023/08/21 04:02:44;;;;;;;5.80;4.72;;;;;;;16.71;100.00;102089.47;4991145;28;20061;-66
2023/08/21 04:05:10;;;;;;;8.10;4.90;;;;;;;16.67;100.00;102092.81;4991432;28;20054;-65
2023/08/21 04:07:37;;;;;;;8.90;5.03;;;;;;;16.62;100.00;102087.44;4991806;28;20026;-67
2023/08/21 04:10:02;;;;;;;9.15;4.97;;;;;;;16.56;100.00;102082.97;4990745;28;20034;-65
2023/08/21 04:12:27;;;;;;;8.00;4.80;;;;;;;16.53;100.00;102093.31;4991022;28;20037;-67
2023/08/21 04:14:54;;;;;;;6.60;5.00;;;;;;;16.51;100.00;102095.03;4990419;28;20059;-63
2023/08/21 04:17:23;;;;;;;7.78;4.63;;;;;;;16.49;100.00;102091.50;4978467;28;20034;-64
2023/08/21 04:19:48;;;;;;;6.97;4.70;;;;;;;16.48;100.00;102084.47;4990482;28;20466;-66
2023/08/21 04:22:14;;;;;;;6.70;4.85;;;;;;;16.46;100.00;102090.53;4989582;28;20026;-66
2023/08/21 04:24:40;;;;;;;6.55;5.50;;;;;;;16.41;100.00;102090.38;4989529;28;20031;-65
2023/08/21 04:27:05;;;;;;;10.40;5.82;;;;;;;16.37;100.00;102097.25;4988732;28;20030;-66
2023/08/21 04:29:31;;;;;;;9.63;5.35;;;;;;;16.33;100.00;102090.19;4988752;28;20035;-66
2023/08/21 04:31:56;;;;;;;7.80;5.40;;;;;;;16.32;100.00;102101.47;4988308;28;20238;-64
2023/08/21 04:34:21;;;;;;;7.75;5.15;;;;;;;16.33;100.00;102111.97;4988891;28;20026;-66
2023/08/21 04:36:46;;;;;;;6.75;5.65;;;;;;;16.36;100.00;102113.81;4989110;28;20490;-65
2023/08/21 04:39:12;;;;;;;8.40;5.28;;;;;;;16.41;100.00;102119.16;4989798;28;20030;-66
2023/08/21 04:41:39;;;;;;;7.22;5.05;;;;;;;16.45;100.00;102121.03;4989894;28;20117;-66
2023/08/21 04:44:04;;;;;;;10.35;6.13;;;;;;;16.50;100.00;102118.50;4990537;28;20033;-67
2023/08/21 04:46:30;;;;;;;6.80;5.50;;;;;;;16.53;100.00;102116.88;4990714;28;20027;-67
2023/08/21 04:48:55;;;;;;;10.48;5.93;;;;;;;16.58;100.00;102121.34;4990759;28;20030;-66
2023/08/21 04:51:20;;;;;;;9.27;5.50;;;;;;;16.59;100.00;102112.66;4989946;28;20269;-64
2023/08/21 04:53:46;;;;;;;7.50;5.63;;;;;;;16.63;100.00;102117.13;4991073;28;20034;-67
2023/08/21 04:56:11;;;;;;;11.70;5.78;;;;;;;16.63;100.00;102130.22;4990376;28;20033;-67
2023/08/21 04:58:36;;;;;;;8.90;5.97;;;;;;;16.66;100.00;102122.44;4990460;28;20033;-66
2023/08/21 05:01:01;;;;;;;6.90;5.78;;;;;;;16.67;100.00;102134.69;4989592;28;20011;-67
2023/08/21 05:03:26;;;;;;;8.13;6.30;;;;;;;16.66;100.00;102127.66;4990651;28;20022;-67
2023/08/21 05:05:53;;;;;;;9.70;6.40;;;;;;;16.70;100.00;102121.69;4990019;28;20026;-66
2023/08/21 05:08:21;;;;;;;7.65;6.00;;;;;;;16.74;100.00;102120.94;4990496;28;20263;-65
2023/08/21 05:10:46;;;;;;;10.32;5.97;;;;;;;16.77;100.00;102123.63;4989935;28;20022;-66
2023/08/21 05:13:11;;;;;;;10.73;5.60;;;;;;;16.79;100.00;102127.19;4989715;28;20553;-66
2023/08/21 05:15:36;;;;;;;11.20;6.60;;;;;;;16.82;100.00;102128.97;4990093;28;20045;-67
2023/08/21 05:18:02;;;;;;;6.90;5.97;;;;;;;16.84;100.00;102129.03;4990337;28;20097;-67
2023/08/21 05:20:27;;;;;;;8.85;6.10;;;;;;;16.87;100.00;102134.34;4989218;28;20031;-67
2023/08/21 05:22:52;;;;;;;9.40;6.13;;;;;;;16.87;100.00;102139.56;4990341;28;20478;-67
2023/08/21 05:25:18;;;;;;;8.27;5.93;;;;;;;16.91;100.00;102139.69;4989768;28;20062;-67
2023/08/21 05:27:43;;;;;;;8.13;6.00;;;;;;;16.91;100.00;102141.41;4989298;28;20102;-67
2023/08/21 05:30:10;;;;;;;8.10;5.85;;;;;;;16.92;100.00;102145.81;4989753;28;20026;-64
2023/08/21 05:32:35;;;;;;;10.70;6.03;;;;;;;16.94;100.00;102146.75;4987846;28;20433;-66
2023/08/21 05:35:01;;;;;;;8.50;5.65;;;;;;;16.97;100.00;102146.81;4981555;28;20045;-67
2023/08/21 05:37:26;;;;;;;7.22;5.55;;;;;;;16.99;100.00;102145.13;4978385;28;20517;-66
2023/08/21 05:39:52;;;;;;;8.40;5.82;;;;;;;17.05;100.00;102145.28;4987233;28;20036;-67
2023/08/21 05:42:17;;;;;;;7.93;5.57;;;;;;;17.12;100.00;102142.88;4986945;28;20520;-67
2023/08/21 05:44:42;;;;;;;7.75;6.30;;;;;;;17.20;100.00;102141.31;4986864;28;20052;-67
2023/08/21 05:47:08;;;;;;;11.40;6.47;;;;;;;17.30;100.00;102149.41;4987144;28;20065;-65
2023/08/21 05:49:33;;;;;;;10.15;6.30;;;;;;;17.37;100.00;102146.09;4986623;28;20406;-66
2023/08/21 05:51:58;;;;;;;11.60;6.60;;;;;;;17.46;100.00;102145.44;4986906;28;20053;-64
2023/08/21 05:54:25;;;;;;;10.10;6.60;;;;;;;17.57;100.00;102150.94;4986595;28;20014;-66
2023/08/21 05:56:50;;;;;;;7.65;6.63;;;;;;;17.67;100.00;102150.28;4986421;28;20092;-66
2023/08/21 05:59:27;;;;;;;9.40;6.25;;;;;;;17.78;100.00;102147.91;4986810;28;20022;-66
2023/08/21 06:01:53;;;;;;;10.70;6.43;;;;;;;17.91;100.00;102148.19;4985539;28;20117;-66
2023/08/21 06:04:18;;;;;;;10.85;6.35;;;;;;;18.04;100.00;102154.59;4986533;28;20145;-65
2023/08/21 06:06:43;;;;;;;11.40;5.68;;;;;;;18.17;100.00;102156.66;4984832;28;20029;-65
2023/08/21 06:09:08;;;;;;;8.80;5.97;;;;;;;18.29;100.00;102157.78;4986268;28;20034;-66
2023/08/21 06:11:34;;;;;;;6.40;5.60;;;;;;;18.41;100.00;102165.88;4986263;28;20019;-66
2023/08/21 06:13:59;;;;;;;7.80;5.75;;;;;;;18.54;100.00;102166.13;4985882;28;20460;-64
2023/08/21 06:16:24;;;;;;;8.60;6.22;;;;;;;18.66;100.00;102168.09;4986293;28;20026;-66
2023/08/21 06:18:49;;;;;;;9.25;6.70;;;;;;;18.78;100.00;102170.09;4984235;28;20065;-66
2023/08/21 06:21:15;;;;;;;10.07;6.55;;;;;;;18.89;100.00;102163.28;4985001;28;20049;-66
2023/08/21 06:23:40;;;;;;;10.23;6.72;;;;;;;19.01;100.00;102172.25;4986056;28;20030;-66
2023/08/21 06:26:05;;;;;;;8.82;7.20;;;;;;;19.11;100.00;102163.69;4986745;28;20556;-67
2023/08/21 06:28:30;;;;;;;10.75;9.10;;;;;;;19.15;100.00;102169.91;4985873;28;20022;-66
2023/08/21 06:30:57;;;;;;;10.93;7.97;;;;;;;19.14;100.00;102169.00;4985964;28;20022;-66
2023/08/21 06:33:23;;;;;;;11.10;7.47;;;;;;;19.17;100.00;102174.34;4984300;28;20072;-66
2023/08/21 06:35:48;;;;;;;11.13;7.43;;;;;;;19.22;100.00;102177.03;4987794;28;20022;-67
2023/08/21 06:38:14;;;;;;;9.27;6.95;;;;;;;19.32;100.00;102178.06;4988310;28;20030;-64
2023/08/21 06:40:39;;;;;;;8.95;6.65;;;;;;;19.48;100.00;102180.97;4988429;28;20494;-66
2023/08/21 06:43:05;;;;;;;7.32;6.50;;;;;;;19.62;100.00;102176.81;4987595;28;20069;-66
2023/08/21 06:45:32;;;;;;;10.68;7.90;;;;;;;19.71;100.00;102181.31;4988742;28;20052;-67
2023/08/21 06:47:57;;;;;;;9.55;7.82;;;;;;;19.74;100.00;102176.09;4988363;28;20038;-66
2023/08/21 06:50:23;;;;;;;10.18;8.65;;;;;;;19.70;100.00;102174.28;4987916;28;20072;-67
2023/08/21 06:52:48;;;;;;;12.63;9.32;;;;;;;19.72;100.00;102182.19;4988140;28;20109;-66
2023/08/21 06:55:13;;;;;;;9.85;7.25;;;;;;;19.74;100.00;102183.09;4988261;28;20022;-65
2023/08/21 06:57:38;;;;;;;12.30;8.25;;;;;;;19.80;100.00;102175.31;4970732;28;20033;-65
2023/08/21 07:00:07;;;;;;;8.90;7.55;;;;;;;19.94;100.00;102182.50;4987968;28;20027;-67
2023/08/21 07:02:32;;;;;;;9.30;8.35;;;;;;;20.06;100.00;102181.84;4986146;28;20441;-66
2023/08/21 07:04:57;;;;;;;10.05;8.80;;;;;;;20.20;100.00;102180.25;4986535;28;20030;-66
2023/08/21 07:07:23;;;;;;;8.98;8.10;;;;;;;20.31;100.00;102177.75;4987880;28;20046;-67
2023/08/21 07:09:50;;;;;;;9.02;8.07;;;;;;;20.37;100.00;102185.72;4988047;28;20019;-66
2023/08/21 07:12:15;;;;;;;8.43;7.53;;;;;;;20.43;100.00;102184.94;4987684;28;20418;-66
2023/08/21 07:14:40;;;;;;;8.95;5.95;;;;;;;20.48;100.00;102179.72;4987504;28;20050;-66
2023/08/21 07:17:05;;;;;;;8.52;5.38;;;;;;;20.56;100.00;102192.97;4987449;28;20041;-67
2023/08/21 07:19:31;;;;;;;6.22;4.15;;;;;;;20.69;100.00;102188.72;4987589;28;20077;-66
2023/08/21 07:21:56;;;;;;;8.18;6.05;;;;;;;20.80;100.00;102194.09;4970060;28;20027;-67
2023/08/21 07:24:21;;;;;;;6.50;4.60;;;;;;;20.85;100.00;102193.28;4984517;28;20501;-65
2023/08/21 07:26:46;;;;;;;6.78;5.28;;;;;;;20.85;100.00;102190.63;4988142;28;20022;-66
2023/08/21 07:29:12;;;;;;;7.88;4.75;;;;;;;20.83;100.00;102195.00;4987648;28;20050;-66
2023/08/21 07:31:37;;;;;;;8.93;5.80;;;;;;;20.80;100.00;102191.47;4987819;28;20458;-67
2023/08/21 07:34:02;;;;;;;8.40;4.90;;;;;;;20.77;100.00;102187.06;4991988;28;20037;-67
2023/08/21 07:36:28;;;;;;;8.32;5.70;;;;;;;20.77;100.00;102197.59;4990328;28;20486;-65
2023/08/21 07:38:53;;;;;;;8.98;5.30;;;;;;;20.78;100.00;102186.19;4991509;28;20383;-66
2023/08/21 07:41:18;;;;;;;8.90;5.47;;;;;;;20.88;100.00;102190.66;4990307;28;20034;-65
2023/08/21 07:43:44;;;;;;;7.35;5.35;;;;;;;21.16;100.00;102186.56;4991510;28;20494;-66
2023/08/21 07:46:13;;;;;;;8.07;5.32;;;;;;;21.42;100.00;102191.19;4990455;28;20121;-65
2023/08/21 07:48:38;;;;;;;7.10;4.25;;;;;;;21.74;100.00;102192.28;4991072;28;20299;-66
2023/08/21 07:51:04;;;;;;;8.65;4.15;;;;;;;22.18;100.00;102193.47;4991098;28;20113;-66
2023/08/21 07:53:31;;;;;;;8.60;4.30;;;;;;;22.61;100.00;102207.69;4990621;28;20137;-64
2023/08/21 07:55:56;;;;;;;7.97;4.50;;;;;;;22.90;99.65;102199.00;4990690;28;20026;-67
2023/08/21 07:58:21;;;;;;;7.03;2.53;;;;;;;23.17;94.60;102202.50;4990920;28;20034;-67
2023/08/21 08:00:48;;;;;;;4.85;3.15;;;;;;;23.43;88.58;102204.31;4990454;28;20466;-67
2023/08/21 08:03:14;;;;;;;6.90;3.70;;;;;;;23.72;90.72;102206.06;4990669;28;20039;-66
2023/08/21 08:05:40;;;;;;;6.32;3.42;;;;;;;24.05;91.48;102207.75;4991048;28;20022;-65
2023/08/21 08:08:05;;;;;;;6.88;3.47;;;;;;;24.39;86.74;102207.66;4990324;28;20576;-67
2023/08/21 08:10:30;;;;;;;6.13;3.85;;;;;;;24.70;85.72;102211.88;4991137;28;20015;-67
2023/08/21 08:12:56;;;;;;;7.63;4.22;;;;;;;24.90;83.76;102214.41;4989592;28;20060;-66
2023/08/21 08:15:22;;;;;;;7.20;3.67;;;;;;;25.08;84.59;102212.53;4989677;28;20080;-67
2023/08/21 08:17:51;;;;;;;8.43;4.45;;;;;;;25.13;83.56;102218.69;4988834;28;20057;-67
2023/08/21 08:20:17;;;;;;;9.40;4.15;;;;;;;25.04;80.33;102222.28;4989871;28;20030;-66
2023/08/21 08:22:42;;;;;;;7.72;4.25;;;;;;;24.89;82.86;102217.97;4990527;28;20034;-65
2023/08/21 08:25:08;;;;;;;7.57;3.95;;;;;;;24.75;84.77;102218.06;4990542;28;20034;-67
2023/08/21 08:27:34;;;;;;;7.57;4.00;;;;;;;24.61;87.08;102212.81;4990280;28;20390;-67
2023/08/21 08:29:59;;;;;;;8.02;3.78;;;;;;;24.57;86.68;102216.38;4989713;28;20030;-67
2023/08/21 08:32:26;;;;;;;5.75;3.35;;;;;;;24.55;85.72;102223.44;4989754;28;20120;-67
2023/08/21 08:34:52;;;;;;;7.47;3.40;;;;;;;24.48;85.61;102213.78;4989647;28;20030;-67
2023/08/21 08:37:17;;;;;;;8.50;4.18;;;;;;;24.36;84.56;102206.78;4989115;28;20390;-66
2023/08/21 08:39:43;;;;;;;10.27;3.92;;;;;;;24.29;88.43;102217.38;4989557;28;20027;-66
2023/08/21 08:42:08;;;;;;;5.28;3.00;;;;;;;24.28;87.61;102213.00;4989487;28;20331;-67
2023/08/21 08:44:38;;;;;;;5.97;2.58;;;;;;;24.27;85.21;102218.28;4988855;28;20018;-67
2023/08/21 08:47:04;;;;;;;5.50;3.75;;;;;;;24.21;87.37;102214.75;4990038;28;20096;-66
2023/08/21 08:49:30;;;;;;;8.35;3.05;;;;;;;24.19;85.79;102216.56;4989986;28;20501;-67
2023/08/21 08:51:57;;;;;;;5.47;2.17;;;;;;;24.37;83.62;102220.00;4989583;28;20037;-65
2023/08/21 08:54:25;;;;;;;7.45;2.60;;;;;;;24.51;83.28;102227.88;4987564;28;20869;-66
2023/08/21 08:56:50;;;;;;;7.65;3.15;;;;;;;24.63;79.28;102226.06;4989910;28;20439;-67
2023/08/21 08:59:15;;;;;;;7.38;2.45;;;;;;;24.54;77.39;102225.22;4988742;28;20264;-65
2023/08/21 09:01:41;;;;;;;7.03;2.03;;;;;;;24.44;78.86;102221.75;4971717;28;20034;-67
2023/08/21 09:04:08;;;;;;;3.95;1.95;;;;;;;24.42;80.29;102223.50;4988760;28;20034;-64
2023/08/21 09:06:33;;;;;;;2.50;1.50;;;;;;;24.38;74.86;102227.06;4981618;28;20478;-67
2023/08/21 09:08:59;;;;;;;4.28;1.63;;;;;;;24.20;76.17;102222.72;4988474;28;20029;-64
2023/08/21 09:11:25;;;;;;;4.05;1.92;;;;;;;24.10;76.29;102222.72;4989089;28;20053;-67
2023/08/21 09:13:52;;;;;;;4.30;2.40;;;;;;;24.06;81.07;102220.06;4988458;28;20054;-66
2023/08/21 09:16:19;;;;;;;4.78;2.47;;;;;;;24.20;86.61;102218.31;4988413;28;20084;-67
2023/08/21 09:18:56;;;;;;;6.45;3.10;;;;;;;24.50;86.38;102215.50;4987626;28;20030;-67
2023/08/21 09:21:23;;;;;;;5.68;3.20;;;;;;;24.75;81.10;102215.41;4982659;28;20054;-66
2023/08/21 09:23:56;;;;;;;5.85;2.17;;;;;;;24.79;76.30;102210.97;4981409;28;20118;-66
2023/08/21 09:26:22;;;;;;;5.88;2.08;;;;;;;24.93;78.75;102210.91;4989766;28;20023;-67
2023/08/21 09:28:49;;;;;;;8.18;3.13;;;;;;;24.94;79.36;102210.88;4972725;28;20018;-67
2023/08/21 09:31:15;;;;;;;5.50;2.65;;;;;;;24.91;74.08;102212.66;4989048;28;20022;-67
2023/08/21 09:33:40;;;;;;;5.22;2.35;;;;;;;24.97;74.11;102209.09;4972213;28;20026;-67
2023/08/21 09:36:06;;;;;;;4.05;2.30;;;;;;;25.18;80.85;102200.97;4989525;28;20438;-67
2023/08/21 09:38:35;;;;;;;6.38;3.20;;;;;;;25.47;80.81;102200.75;4990158;28;20022;-67
2023/08/21 09:41:00;;;;;;;7.47;3.17;;;;;;;25.65;77.55;102211.19;4988971;28;20054;-67
2023/08/21 09:43:26;;;;;;;5.82;2.30;;;;;;;25.82;77.44;102199.53;4990205;28;20437;-67
2023/08/21 09:45:55;;;;;;;6.07;3.42;;;;;;;25.98;75.33;102209.97;4971390;28;20470;-67
2023/08/21 09:48:26;;;;;;;6.55;2.83;;;;;;;26.11;75.51;102213.34;4989577;28;20030;-68
2023/08/21 09:50:52;;;;;;;8.43;3.08;;;;;;;26.01;70.34;102207.28;4989359;28;20049;-67
2023/08/21 09:53:17;;;;;;;7.15;3.35;;;;;;;25.99;70.80;102212.63;4989111;28;20034;-66
2023/08/21 09:55:44;;;;;;;7.00;3.15;;;;;;;25.98;72.55;102208.19;4988623;28;20034;-67
2023/08/21 09:58:10;;;;;;;4.50;2.17;;;;;;;26.08;73.86;102208.97;4989412;28;20034;-67
2023/08/21 10:00:39;;;;;;;4.07;1.73;;;;;;;26.20;69.43;102207.06;4988983;28;20038;-67
2023/08/21 10:03:09;;;;;;;7.35;1.80;;;;;;;26.34;70.32;102207.75;4989032;28;20038;-67
2023/08/21 10:05:38;;;;;;;7.35;1.88;;;;;;;26.46;69.57;102203.22;4989289;28;20022;-66
2023/08/21 10:08:06;;;;;;;8.02;2.40;;;;;;;26.47;68.56;102200.53;4988147;28;20065;-66
2023/08/21 10:10:33;;;;;;;8.13;2.03;;;;;;;26.54;67.73;102195.13;4988102;28;20528;-67
2023/08/21 10:13:00;;;;;;;3.70;1.73;;;;;;;26.46;68.72;102196.09;4988834;28;20030;-65
2023/08/21 10:15:28;;;;;;;5.28;1.58;;;;;;;26.64;66.98;102194.13;4988787;28;20056;-67
2023/08/21 10:17:53;;;;;;;6.20;2.35;;;;;;;26.76;65.44;102200.13;4989363;28;20529;-66
2023/08/21 10:20:24;;;;;;;3.75;1.38;;;;;;;26.86;68.54;102194.66;4988629;28;20026;-67
2023/08/21 10:22:52;;;;;;;7.93;2.03;;;;;;;26.93;68.04;102189.25;4989223;28;20375;-67
2023/08/21 10:25:21;;;;;;;5.55;1.08;;;;;;;26.98;64.59;102182.94;4988537;28;20104;-67
2023/08/21 10:27:50;;;;;;;5.70;1.95;;;;;;;27.04;65.50;102192.63;4988675;28;20044;-68
2023/08/21 10:30:20;;;;;;;3.97;1.98;;;;;;;27.09;64.95;102198.75;4988576;28;20414;-68
2023/08/21 10:32:51;;;;;;;5.93;1.65;;;;;;;27.00;64.60;102190.91;4988613;28;20058;-67
2023/08/21 10:35:21;;;;;;;3.22;1.25;;;;;;;27.03;67.75;102184.66;4988852;28;20030;-66
2023/08/21 10:38:16;;;;;;;5.78;1.85;;;;;;;27.13;68.96;102186.28;4988383;28;20030;-66
2023/08/21 10:41:04;;;;;;;4.75;1.40;;;;;;;27.21;68.91;102191.47;4988238;28;20029;-67
2023/08/21 10:43:43;;;;;;;7.15;2.08;;;;;;;27.23;68.47;102188.78;4978465;28;20053;-66
2023/08/21 10:46:09;;;;;;;2.47;1.10;;;;;;;27.36;67.20;102192.09;4988135;28;20109;-67
2023/08/21 10:48:36;;;;;;;3.83;1.38;;;;;;;27.51;63.64;102190.94;4987775;28;20420;-66
2023/08/21 10:51:03;;;;;;;5.15;1.25;;;;;;;27.67;64.72;102199.50;4986236;28;20470;-66
2023/08/21 10:53:30;;;;;;;2.33;1.00;;;;;;;27.75;61.04;102194.97;4986413;28;20368;-66
2023/08/21 10:55:55;;;;;;;2.85;0.73;;;;;;;27.77;55.82;102198.47;4986257;28;20757;-66
2023/08/21 10:58:21;;;;;;;2.88;0.57;;;;;;;27.80;59.13;102201.06;4986856;28;20265;-67
2023/08/21 11:00:46;;;;;;;2.63;1.33;;;;;;;27.87;61.01;102203.59;4986826;28;20030;-66
2023/08/21 11:03:12;;;;;;;2.80;1.02;;;;;;;27.95;61.60;102200.78;4987239;28;20073;-66
2023/08/21 11:05:37;;;;;;;3.35;1.27;;;;;;;28.03;61.40;102205.06;4988594;28;20137;-67
2023/08/21 11:08:02;;;;;;;4.00;0.90;;;;;;;27.97;59.21;102197.19;4988029;28;20037;-66
2023/08/21 11:10:32;;;;;;;2.72;1.10;;;;;;;27.94;58.29;102194.59;4988375;28;20030;-66
2023/08/21 11:13:02;;;;;;;3.08;1.10;;;;;;;27.83;59.04;102196.59;4988425;28;20470;-66
2023/08/21 11:15:29;;;;;;;5.32;1.25;;;;;;;27.75;61.20;102200.28;4987571;28;20375;-66